Create Custom Reports and Graphics: Custom Report

Last 6 Observations

Last 30 Minutes (5-Min)

5 Minute Data | America/Los_Angeles
as of 5/6/26 11:50 PM PDT
Date & Time Wind Spd (mph) Wind Dir (°) Wind Gust (mph) Wind Spd Sonic (mph) Wind Dir Sonic (°) Wind Gust Sonic (mph)
5/6/26 - 2345 24.8 SW | 223 30.2 29.5 N | 11 31.3
5/6/26 - 2340 23.9 SW | 223 29.5 29.6 NNE | 12 31.5
5/6/26 - 2335 25.7 SW | 223 32.1 30.7 N | 10 33.8
5/6/26 - 2330 27.4 SW | 223 34.5 32.2 N | 8 35.1
5/6/26 - 2325 26.8 SW | 223 31.8 31.7 N | 10 33.3
5/6/26 - 2320 26.0 SW | 223 31.9 31.0 NNE | 14 32.7
Max 27.4 - 34.5 32.2 - 35.1
Avg 25.8 - 31.7 30.8 - 33.0
Min 23.9 - 29.5 29.5 - 31.3

Top Stn/Summit - 11,053ft

Current Conditions

5/6/26 11:45 PM (-07:00)
Updated Every 15 Minutes
Wind Spd 24.8 mph   12.9
Wind Spd Sonic 29.9 mph   13.0
Wind Dir SW | 223 °
Wind Dir Sonic N | 11 °
Wind Gust 32.1 mph   14.0
Wind Gust Sonic 33.8 mph   16.1
Temp 37.1 °F   9.4
WindChill 24.8 °F   15.3
RH 51 %   49
Dew Pt 20.7 °F   7.0
Wet Bulb 31.4 °F   3.8
Daily Max Wind 50.6 mph   2.0
Time of Max Wind 1108
Max Wind Dir NW | 323 °
Daily Max Gust Sonic 47.2 mph   4.9
Time Wind Max Sonic 0258
Dir Max Gust Sonic N | 6 Degrees
Daily Max Temp 42.2 °F   13.6
Daily Min Temp 27.9 °F   5.4
Yest MaxT 28.7 °F
Yest MinT 22.5 °F
Yest MaxGst 52.6 mph

Last 24 Hours

Top Stn/Summit - 11,053ft

15 Minute Data | America/Los_Angeles
as of 5/6/26 11:50 PM PDT
Date & Time Temp (°F) WindChill (°F) RH (%) Dew Pt (°F) Wet Bulb (°F) Wind Spd (mph) Wind Spd Sonic (mph) Wind Dir (°) Wind Dir Sonic (°) Wind Gust (mph) Wind Gust Sonic (mph) Daily Min Temp (°F) Daily Max Temp (°F) Daily Max Wind (mph) Daily Max Gust Sonic (mph)
5/6/26 - 2345 37.1 24.8 51 20.7 31.4 24.8 29.9 SW | 223 N | 11 32.1 33.8 27.9 42.2 50.6 47.2
5/6/26 - 2330 37.2 24.5 52 21.0 31.5 26.7 31.6 SW | 223 N | 11 34.5 35.1 27.9 42.2 50.6 47.2
5/6/26 - 2315 37.4 25.1 52 21.3 31.7 25.4 30.6 SW | 224 NNE | 14 32.1 32.9 27.9 42.2 50.6 47.2
5/6/26 - 2300 37.5 25.2 54 22.2 32.0 25.1 29.6 SW | 224 NNE | 17 32.8 32.4 27.9 42.2 50.6 47.2
5/6/26 - 2245 37.6 25.7 55 23.0 32.4 24.4 27.8 SW | 224 NNE | 19 31.1 31.3 27.9 42.2 50.6 47.2
5/6/26 - 2230 38.0 26.9 56 23.7 32.8 21.0 24.7 SW | 225 NNE | 12 27.6 27.5 27.9 42.2 50.6 47.2
5/6/26 - 2215 38.5 27.8 54 23.3 33.0 20.0 23.0 SW | 225 NNE | 18 25.6 25.7 27.9 42.2 50.6 47.2
5/6/26 - 2200 38.6 28.4 53 23.1 33.0 18.7 21.2 SW | 225 NNE | 18 23.6 23.0 27.9 42.2 50.6 47.2
5/6/26 - 2145 38.8 28.6 52 22.7 33.0 18.8 21.7 SW | 225 NNE | 15 23.7 24.6 27.9 42.2 50.6 47.2
5/6/26 - 2130 38.9 28.4 51 22.4 32.9 19.6 22.1 SW | 225 NNE | 19 25.6 24.6 27.9 42.2 50.6 47.2
5/6/26 - 2115 39.2 29.3 51 22.5 33.2 17.7 20.2 SW | 224 NNE | 18 23.6 23.0 27.9 42.2 50.6 47.2
5/6/26 - 2100 39.4 29.8 51 22.7 33.3 16.8 19.3 SW | 224 NNE | 18 22.5 21.9 27.9 42.2 50.6 47.2
5/6/26 - 2045 39.7 30.3 49 22.4 33.4 16.0 17.3 SW | 224 NNE | 13 22.3 20.8 27.9 42.2 50.6 47.2
5/6/26 - 2030 40.1 29.9 48 22.1 33.6 19.7 19.5 SW | 224 N | 2 26.9 24.8 27.9 42.2 50.6 47.2
5/6/26 - 2015 40.1 29.7 48 22.2 33.6 20.9 21.7 SW | 224 N | 6 27.6 26.8 27.9 42.2 50.6 47.2
5/6/26 - 2000 40.4 30.0 48 22.0 33.7 20.9 21.3 SW | 223 N | 5 27.1 25.5 27.9 42.2 50.6 47.2
5/6/26 - 1945 40.7 30.7 46 21.5 33.8 19.6 20.5 SW | 223 N | 5 26.5 26.2 27.9 42.2 50.6 47.2
5/6/26 - 1930 41.0 31.3 45 21.4 33.9 18.5 19.2 SW | 223 N | 0 25.8 25.3 27.9 42.2 50.6 47.2
5/6/26 - 1915 41.2 31.7 48 23.1 34.5 17.6 17.4 SW | 223 N | 2 25.3 22.4 27.9 42.2 50.6 47.2
5/6/26 - 1900 41.4 31.2 51 24.4 35.0 21.7 20.8 SW | 222 N | 6 29.1 26.0 27.9 42.2 50.6 47.2
5/6/26 - 1845 41.6 31.7 51 25.0 35.3 19.7 18.9 SW | 222 N | 8 28.6 26.2 27.9 42.2 50.6 47.2
5/6/26 - 1830 41.7 31.3 52 25.2 35.4 19.4 18.2 SW | 222 N | 10 33.6 27.1 27.9 42.2 50.6 47.2
5/6/26 - 1815 41.9 32.5 52 25.6 35.6 17.6 17.8 SW | 222 N | 357 26.7 25.3 27.9 42.2 50.6 47.2
5/6/26 - 1800 41.8 31.2 53 25.7 35.6 21.7 20.8 SW | 222 N | 10 33.6 27.1 27.9 42.2 50.6 47.2
5/6/26 - 1745 41.8 31.5 53 26.0 35.7 20.4 20.8 SW | 222 N | 5 33.1 29.8 27.9 42.2 50.6 47.2
5/6/26 - 1730 41.7 31.0 53 25.8 35.6 23.1 23.2 SW | 222 N | 3 34.7 30.2 27.9 42.2 50.6 47.2
5/6/26 - 1715 41.8 31.6 53 26.1 35.7 20.3 21.8 SW | 221 N | 357 31.3 31.1 27.9 42.2 50.6 47.2
5/6/26 - 1700 41.6 31.2 56 26.9 35.8 20.8 19.8 SW | 221 N | 7 32.4 28.0 27.9 42.0 50.6 47.2
5/6/26 - 1645 41.6 32.3 54 26.3 35.7 16.3 17.1 SW | 221 N | 1 25.8 23.7 27.9 41.9 50.6 47.2
5/6/26 - 1630 41.4 31.2 55 26.4 35.6 20.8 20.8 SW | 220 N | 11 30.4 27.3 27.9 41.7 50.6 47.2
5/6/26 - 1615 41.1 31.0 55 26.3 35.4 19.7 20.0 SW | 219 N | 9 29.0 27.5 27.9 41.4 50.6 47.2
5/6/26 - 1600 41.0 30.0 55 26.1 35.3 20.7 19.8 SW | 217 N | 5 37.2 32.4 27.9 41.3 50.6 47.2
5/6/26 - 1545 40.5 30.0 56 26.2 35.0 17.9 16.8 SW | 217 N | 9 32.0 25.0 27.9 41.0 50.6 47.2
5/6/26 - 1530 40.3 30.7 58 26.6 35.0 15.8 16.9 SW | 219 N | 8 25.8 25.5 27.9 40.6 50.6 47.2
5/6/26 - 1515 40.2 29.2 59 26.9 35.1 22.3 21.8 SW | 217 N | 9 33.6 28.9 27.9 40.4 50.6 47.2
5/6/26 - 1500 39.7 28.5 61 27.2 34.9 22.4 21.4 SW | 218 NNE | 15 32.5 28.9 27.9 40.2 50.6 47.2
5/6/26 - 1445 39.4 27.6 62 27.4 34.8 23.8 22.5 SW | 217 NNE | 14 36.8 30.6 27.9 39.6 50.6 47.2
5/6/26 - 1430 38.9 26.9 64 27.8 34.6 23.7 21.9 SW | 216 NNE | 19 37.3 32.7 27.9 39.3 50.6 47.2
5/6/26 - 1415 38.7 26.6 64 27.6 34.4 24.6 23.6 SSW | 210 NNE | 14 36.0 32.4 27.9 39.0 50.6 47.2
5/6/26 - 1400 38.4 25.7 65 27.8 34.3 25.8 24.7 SSE | 152 N | 7 40.1 31.3 27.9 38.6 50.6 47.2
5/6/26 - 1345 38.0 24.9 65 27.4 33.9 27.7 27.5 SW | 233 N | 6 42.0 35.1 27.9 38.4 50.6 47.2
5/6/26 - 1330 37.6 24.4 67 27.7 33.8 27.6 25.6 SW | 214 NNE | 16 40.8 36.7 27.9 37.9 50.6 47.2
5/6/26 - 1315 37.3 24.3 68 27.7 33.6 27.8 26.3 SW | 216 N | 8 38.3 37.4 27.9 37.6 50.6 47.2
5/6/26 - 1300 37.1 24.1 66 27.0 33.2 26.3 26.4 SW | 216 NNE | 15 38.1 33.3 27.9 37.4 50.6 47.2
5/6/26 - 1245 37.0 23.8 66 26.8 33.1 27.4 27.6 SW | 216 NNE | 15 38.5 35.3 27.9 37.2 50.6 47.2
5/6/26 - 1230 36.3 23.1 67 26.6 32.7 25.4 24.5 SW | 214 N | 11 38.3 34.4 27.9 36.7 50.6 47.2
5/6/26 - 1215 36.2 22.6 67 26.3 32.5 26.4 27.0 SW | 215 N | 9 40.6 35.8 27.9 36.5 50.6 47.2
5/6/26 - 1200 36.0 21.8 68 26.3 32.3 28.9 27.8 SSW | 200 NNE | 13 45.0 39.6 27.9 36.3 50.6 47.2
5/6/26 - 1145 35.7 21.7 68 26.3 32.2 29.7 26.9 ESE | 114 NNE | 12 41.2 35.1 27.9 35.9 50.6 47.2
5/6/26 - 1130 35.5 20.5 69 26.3 32.0 34.0 31.3 NNW | 345 NNE | 24 47.9 43.0 27.9 35.8 50.6 47.2
5/6/26 - 1115 35.0 19.5 70 26.4 31.8 35.9 32.3 N | 356 NNE | 13 50.6 41.4 27.9 35.3 50.6 47.2
5/6/26 - 1100 34.7 19.6 72 26.8 31.7 34.3 30.7 N | 350 N | 10 44.9 38.5 27.9 35.1 48.1 47.2
5/6/26 - 1045 34.3 19.3 75 27.1 31.6 33.5 31.1 NNW | 340 NNE | 14 43.6 40.7 27.9 34.5 48.1 47.2
5/6/26 - 1030 34.3 18.9 75 27.1 31.6 33.2 29.8 N | 3 NNE | 12 48.1 38.2 27.9 34.5 48.1 47.2
5/6/26 - 1015 33.6 18.0 79 27.9 31.5 33.0 32.0 N | 359 N | 5 47.5 38.9 27.9 34.1 47.5 47.2
5/6/26 - 1000 33.3 17.9 80 28.0 31.3 32.4 31.6 N | 0 NNE | 18 44.1 39.6 27.9 33.6 46.8 47.2
5/6/26 - 0945 33.4 17.5 81 28.2 31.4 35.4 34.7 N | 0 NNE | 12 46.8 43.2 27.9 33.6 46.8 47.2
5/6/26 - 0930 33.2 18.0 78 27.2 30.9 31.5 28.8 NNW | 348 N | 7 42.5 37.6 27.9 33.4 45.3 47.2
5/6/26 - 0915 32.8 18.2 77 26.4 30.4 27.8 23.8 N | 350 NNE | 19 37.7 31.3 27.9 33.0 45.3 47.2
5/6/26 - 0900 32.7 17.7 77 26.4 30.3 29.6 25.6 N | 350 NNE | 18 39.2 31.5 27.9 33.0 45.3 47.2
5/6/26 - 0845 32.4 17.3 79 26.6 30.2 29.6 26.5 N | 350 NNE | 15 38.8 31.5 27.9 32.6 45.3 47.2
5/6/26 - 0830 32.1 16.8 79 26.2 29.9 30.8 27.5 N | 350 NNE | 18 38.5 33.1 27.9 32.2 45.3 47.2
5/6/26 - 0815 31.8 16.4 81 26.6 29.9 31.1 29.6 N | 350 NNE | 15 39.5 35.1 27.9 32.0 45.3 47.2
5/6/26 - 0800 31.6 16.1 82 26.7 29.8 31.0 33.0 N | 350 NNE | 14 39.3 37.6 27.9 31.8 45.3 47.2
5/6/26 - 0745 31.1 15.6 82 26.4 29.3 30.7 34.5 N | 350 NNE | 13 37.1 37.4 27.9 31.5 45.3 47.2
5/6/26 - 0730 31.0 15.2 82 26.2 29.2 30.8 32.6 N | 350 NNE | 12 39.6 38.2 27.9 31.2 45.3 47.2
5/6/26 - 0715 30.9 15.1 82 26.0 29.0 31.0 35.9 N | 350 N | 11 38.7 39.8 27.9 31.1 45.3 47.2
5/6/26 - 0700 30.5 14.8 83 25.8 28.8 30.1 35.6 N | 350 N | 10 37.6 38.9 27.9 30.8 45.3 47.2
5/6/26 - 0645 30.1 14.1 84 25.9 28.5 30.8 33.7 N | 350 NNE | 13 38.4 38.9 27.9 30.4 45.3 47.2
5/6/26 - 0630 29.7 13.5 86 26.0 28.3 31.1 35.6 N | 350 NNE | 13 38.8 40.0 27.9 29.9 45.3 47.2
5/6/26 - 0615 29.2 12.7 88 26.1 28.0 31.2 36.4 N | 350 NNE | 16 38.8 38.9 27.9 29.3 45.3 47.2
5/6/26 - 0600 28.9 12.8 91 26.7 28.0 29.8 34.9 N | 350 NNE | 13 36.3 37.4 27.9 29.0 45.3 47.2
5/6/26 - 0545 28.7 12.5 97 27.9 28.3 29.6 34.7 N | 350 NNE | 13 36.2 38.0 27.9 28.9 45.3 47.2
5/6/26 - 0530 28.4 11.9 100 28.2 28.2 30.1 35.0 N | 350 NNE | 14 37.4 38.5 27.9 28.5 45.3 47.2
5/6/26 - 0515 28.2 11.4 100 28.2 28.1 31.2 37.2 N | 350 N | 11 38.3 42.0 27.9 28.4 45.3 47.2
5/6/26 - 0500 28.2 11.3 100 28.2 28.1 31.9 37.5 N | 350 N | 10 39.9 42.5 27.9 28.4 45.3 47.2
5/6/26 - 0445 28.2 10.6 100 28.2 28.0 34.4 37.2 N | 350 NNE | 13 44.1 41.8 27.9 28.4 45.3 47.2
5/6/26 - 0430 28.1 10.4 100 28.1 27.9 34.7 38.6 N | 350 N | 11 44.1 42.0 27.9 28.4 45.3 47.2
5/6/26 - 0415 28.0 10.8 100 28.0 27.9 33.4 39.2 N | 350 NNE | 13 40.8 42.5 27.9 28.4 45.3 47.2
5/6/26 - 0400 28.0 10.6 100 28.0 27.9 34.4 40.0 N | 350 NNE | 13 42.2 43.8 27.9 28.4 45.3 47.2
5/6/26 - 0345 28.1 10.5 100 28.1 27.9 35.0 41.4 N | 350 NNE | 13 42.9 44.5 27.9 28.4 45.3 47.2
5/6/26 - 0330 28.1 10.4 100 28.1 28.0 36.1 42.5 N | 350 NNE | 13 43.9 46.1 28.0 28.4 45.3 47.2
5/6/26 - 0315 28.1 10.2 100 28.1 28.0 36.7 43.6 N | 350 N | 11 45.3 47.2 28.0 28.4 45.3 47.2
5/6/26 - 0300 28.1 10.6 100 28.1 28.0 35.6 42.9 N | 350 N | 10 42.6 47.2 28.0 28.4 42.6 47.2
5/6/26 - 0245 28.1 10.8 100 28.1 28.0 33.8 41.0 N | 350 N | 8 41.6 46.8 28.0 28.4 42.2 46.8
5/6/26 - 0230 28.2 11.2 100 28.2 28.1 33.0 39.3 N | 350 N | 8 39.4 42.7 28.0 28.4 42.2 44.5
5/6/26 - 0215 28.2 11.2 100 28.2 28.1 32.7 39.2 N | 350 N | 8 40.4 43.4 28.0 28.4 42.2 44.5
5/6/26 - 0200 28.4 11.2 100 28.4 28.2 33.5 39.1 N | 350 N | 6 41.5 43.8 28.0 28.4 42.2 44.5
5/6/26 - 0145 28.3 11.0 100 28.3 28.2 33.3 39.4 N | 350 N | 5 42.2 44.5 28.0 28.4 42.2 44.5
5/6/26 - 0130 28.1 11.1 100 28.1 28.0 32.6 37.1 N | 350 N | 6 39.7 41.6 28.0 28.3 42.1 44.3
5/6/26 - 0115 28.1 10.8 100 28.1 28.0 32.7 37.8 N | 350 N | 7 42.1 44.3 28.0 28.2 42.1 44.3
5/6/26 - 0100 28.2 10.4 100 28.2 28.0 35.4 38.2 N | 350 N | 6 45.2 45.6 22.5 28.7 52.6 52.1
5/6/26 - 0045 28.1 10.0 100 28.1 28.0 35.4 39.1 N | 350 N | 4 49.0 44.7 22.5 28.7 52.6 52.1
5/6/26 - 0030 28.0 10.9 100 28.0 27.9 32.3 38.0 N | 350 N | 6 40.2 42.3 22.5 28.7 52.6 52.1
5/6/26 - 0015 27.7 10.3 100 27.7 27.6 33.6 40.6 N | 350 N | 10 40.9 44.5 22.5 28.7 52.6 52.1
5/6/26 - 0000 27.6 10.3 100 27.6 27.4 32.8 38.5 N | 350 N | 5 39.9 44.1 22.5 28.7 52.6 52.1
5/5/26 - 2345 27.7 9.5 100 27.7 27.6 37.7 42.9 N | 350 N | 6 46.1 49.9 22.5 28.7 52.6 52.1
Max 41.9 32.5 100 28.4 35.8 37.7 43.6 - - 50.6 49.9 28.0 42.2 52.6 52.1
Avg 34.8 21.0 73 26.1 31.5 27.3 29.0 - - 36.7 35.0 - - - -
Min 27.6 9.5 45 20.7 27.4 15.8 16.8 - - 22.3 20.8 22.5 28.2 42.1 44.3
Calm: 0.0%